Time;durP1;ratioP1;P1;durP2;ratioP2;P2;SDS_P1;SDS_P2;PMS_P1;PMS_P2;Temp;Humidity;BMP_temperature;BMP_pressure;BME280_temperature;BME280_humidity;BME280_pressure;Samples;Min_cycle;Max_cycle;Signal;HPM_P1;HPM_P2
2023/08/22 00:01:56;;;;;;;14.38;8.82;;;;;;;21.04;100.00;96978.34;5052694;28;20442;-66
2023/08/22 00:04:22;;;;;;;12.85;8.98;;;;;;;21.14;100.00;96972.53;5052542;28;20041;-66
2023/08/22 00:06:47;;;;;;;14.65;8.77;;;;;;;21.30;100.00;96971.00;5053645;28;20111;-66
2023/08/22 00:09:12;;;;;;;12.70;8.82;;;;;;;21.32;100.00;96969.38;5060496;28;20033;-66
2023/08/22 00:11:38;;;;;;;15.80;8.35;;;;;;;21.35;100.00;96968.47;5055379;28;20029;-66
2023/08/22 00:14:03;;;;;;;18.25;9.27;;;;;;;21.27;100.00;96969.88;5054348;28;20028;-66
2023/08/22 00:16:29;;;;;;;14.90;8.82;;;;;;;21.31;100.00;96969.78;5053700;28;20036;-66
2023/08/22 00:18:55;;;;;;;10.88;8.73;;;;;;;21.33;100.00;96965.34;5051999;28;20032;-66
2023/08/22 00:21:20;;;;;;;12.20;9.15;;;;;;;21.38;100.00;96964.06;5053292;28;20033;-66
2023/08/22 00:23:46;;;;;;;16.45;9.07;;;;;;;21.42;100.00;96966.78;5052808;28;20100;-66
2023/08/22 00:26:11;;;;;;;17.45;8.98;;;;;;;21.35;100.00;96962.91;5053574;28;20029;-66
2023/08/22 00:28:36;;;;;;;13.50;9.23;;;;;;;21.19;100.00;96952.53;5052459;28;20108;-66
2023/08/22 00:31:02;;;;;;;15.07;9.55;;;;;;;20.95;100.00;96962.97;5052106;28;20033;-66
2023/08/22 00:33:27;;;;;;;16.75;10.10;;;;;;;20.97;100.00;96966.09;5051955;28;20044;-66
2023/08/22 00:35:53;;;;;;;15.77;8.82;;;;;;;21.08;100.00;96962.31;5052247;28;20101;-66
2023/08/22 00:38:18;;;;;;;14.95;9.57;;;;;;;21.10;100.00;96957.88;5051943;28;20437;-66
2023/08/22 00:40:44;;;;;;;12.05;9.10;;;;;;;21.13;100.00;96959.81;5052139;28;20100;-65
2023/08/22 00:43:09;;;;;;;14.02;9.05;;;;;;;21.14;100.00;96964.19;5051812;28;20029;-65
2023/08/22 00:45:36;;;;;;;14.00;8.75;;;;;;;21.23;100.00;96971.16;5051995;28;20435;-65
2023/08/22 00:48:02;;;;;;;12.45;9.02;;;;;;;21.25;100.00;96963.16;5051913;28;20056;-65
2023/08/22 00:50:28;;;;;;;15.18;9.15;;;;;;;21.22;100.00;96959.25;5051920;28;20060;-65
2023/08/22 00:52:53;;;;;;;15.10;9.10;;;;;;;21.22;100.00;96956.44;5052085;28;20029;-65
2023/08/22 00:55:19;;;;;;;13.90;9.40;;;;;;;21.11;100.00;96959.47;5051968;28;20055;-65
2023/08/22 00:57:44;;;;;;;14.23;9.18;;;;;;;20.93;100.00;96959.84;5051993;28;20029;-65
2023/08/22 01:00:10;;;;;;;15.93;9.52;;;;;;;20.81;100.00;96961.28;5050499;28;20029;-65
2023/08/22 01:02:38;;;;;;;12.43;8.95;;;;;;;20.74;100.00;96964.22;5051745;28;20033;-65
2023/08/22 01:05:05;;;;;;;14.88;9.13;;;;;;;20.69;100.00;96958.34;5051882;28;20108;-65
2023/08/22 01:07:40;;;;;;;14.50;9.15;;;;;;;20.62;100.00;96950.94;5050857;28;20428;-65
2023/08/22 01:10:21;;;;;;;15.27;10.05;;;;;;;20.51;100.00;96956.66;5052140;28;20029;-65
2023/08/22 01:12:49;;;;;;;13.73;9.30;;;;;;;20.53;100.00;96953.47;5051724;28;20028;-65
2023/08/22 01:15:24;;;;;;;14.90;9.52;;;;;;;20.63;100.00;96958.06;5051870;28;20086;-65
2023/08/22 01:17:54;;;;;;;12.35;9.25;;;;;;;20.67;100.00;96958.78;5051755;28;20502;-65
2023/08/22 01:20:20;;;;;;;;;;;;;;;20.65;100.00;96963.97;5052489;28;20123;-67
2023/08/22 01:22:46;;;;;;;13.25;10.25;;;;;;;20.49;100.00;96958.28;5051351;28;20327;-67
2023/08/22 01:25:11;;;;;;;13.10;9.02;;;;;;;20.40;100.00;96959.66;5051434;28;20035;-65
2023/08/22 01:28:16;;;;;;;17.27;9.63;;;;;;;20.39;100.00;96965.63;5051521;28;20029;-65
2023/08/22 01:30:47;;;;;;;12.88;9.55;;;;;;;20.47;100.00;96953.16;5048115;28;20529;-67
2023/08/22 01:33:25;;;;;;;13.10;9.73;;;;;;;20.36;100.00;96956.13;5051278;28;20056;-67
2023/08/22 01:35:54;;;;;;;15.93;11.18;;;;;;;20.21;100.00;96955.63;5051515;28;20071;-64
2023/08/22 01:38:21;;;;;;;15.95;10.48;;;;;;;20.08;100.00;96957.44;5051530;28;20040;-65
2023/08/22 01:40:48;;;;;;;16.88;10.18;;;;;;;20.10;100.00;96952.25;5050956;28;20486;-66
2023/08/22 01:43:14;;;;;;;14.00;9.15;;;;;;;20.17;100.00;96954.91;5052484;28;20040;-66
2023/08/22 01:45:39;;;;;;;14.55;9.70;;;;;;;20.21;100.00;96960.41;5055456;28;20029;-65
2023/08/22 01:48:05;;;;;;;13.55;9.57;;;;;;;20.14;100.00;96955.75;5055327;28;20033;-66
2023/08/22 01:50:31;;;;;;;11.63;9.05;;;;;;;20.10;100.00;96957.81;5055255;28;20028;-65
2023/08/22 01:52:57;;;;;;;14.65;9.23;;;;;;;20.20;100.00;96954.06;5054965;28;20033;-66
2023/08/22 01:55:23;;;;;;;14.88;8.93;;;;;;;20.28;100.00;96948.38;5055462;28;20112;-65
2023/08/22 01:57:48;;;;;;;17.92;10.68;;;;;;;20.20;100.00;96951.28;5054567;28;20457;-65
2023/08/22 02:00:14;;;;;;;18.30;10.57;;;;;;;19.98;100.00;96948.06;5055509;28;20063;-65
2023/08/22 02:02:39;;;;;;;17.17;10.30;;;;;;;19.91;100.00;96950.97;5054647;28;20037;-65
2023/08/22 02:05:05;;;;;;;12.75;10.43;;;;;;;19.86;100.00;96952.25;5055001;28;20597;-66
2023/08/22 02:07:33;;;;;;;17.25;10.90;;;;;;;19.82;100.00;96943.16;5054938;28;20033;-66
2023/08/22 02:09:58;;;;;;;15.43;11.45;;;;;;;19.68;100.00;96946.94;5055136;28;20413;-66
2023/08/22 02:12:24;;;;;;;17.27;10.82;;;;;;;19.71;100.00;96955.63;5054829;28;20025;-66
2023/08/22 02:14:51;;;;;;;17.23;10.00;;;;;;;19.78;100.00;96948.00;5053916;28;20063;-66
2023/08/22 02:17:16;;;;;;;14.75;10.50;;;;;;;19.90;100.00;96959.72;5053481;28;20043;-66
2023/08/22 02:19:42;;;;;;;12.98;9.57;;;;;;;19.99;100.00;96958.00;5054779;28;20032;-65
2023/08/22 02:22:07;;;;;;;15.98;10.48;;;;;;;20.08;100.00;96959.41;5054289;28;20037;-66
2023/08/22 02:24:33;;;;;;;17.60;10.00;;;;;;;20.11;100.00;96962.13;5054680;28;20033;-66
2023/08/22 02:26:58;;;;;;;13.27;10.02;;;;;;;20.08;100.00;96962.19;5054684;28;20025;-65
2023/08/22 02:29:23;;;;;;;14.20;9.48;;;;;;;20.13;100.00;96964.50;5054483;28;20052;-66
2023/08/22 02:31:49;;;;;;;14.23;9.38;;;;;;;20.15;100.00;96960.09;5054454;28;20119;-65
2023/08/22 02:34:14;;;;;;;17.45;10.25;;;;;;;20.14;100.00;96963.31;5054245;28;20029;-66
2023/08/22 02:36:39;;;;;;;13.80;10.15;;;;;;;20.10;100.00;96957.81;5054630;28;20063;-68
2023/08/22 02:39:05;;;;;;;11.40;9.90;;;;;;;20.07;100.00;96961.41;5054549;28;20037;-65
2023/08/22 02:41:30;;;;;;;15.23;10.80;;;;;;;20.07;100.00;96953.09;5054549;28;20031;-66
2023/08/22 02:43:56;;;;;;;22.38;10.10;;;;;;;20.12;100.00;96966.50;5054196;28;20037;-65
2023/08/22 02:46:21;;;;;;;14.98;10.00;;;;;;;20.13;100.00;96956.16;5054179;28;20394;-65
2023/08/22 02:48:46;;;;;;;17.73;10.65;;;;;;;20.08;100.00;96963.00;5053127;28;20470;-65
2023/08/22 02:51:12;;;;;;;14.82;11.23;;;;;;;20.04;100.00;96954.72;5054111;28;20044;-64
2023/08/22 02:53:37;;;;;;;18.08;11.40;;;;;;;19.91;100.00;96953.75;5053726;28;20075;-65
2023/08/22 02:56:04;;;;;;;19.23;12.38;;;;;;;19.66;100.00;96951.34;5053371;28;20037;-64
2023/08/22 02:58:30;;;;;;;16.98;13.63;;;;;;;19.43;100.00;96954.88;5054470;28;20068;-64
2023/08/22 03:00:56;;;;;;;19.92;12.70;;;;;;;19.16;100.00;96949.28;5054144;28;20094;-63
2023/08/22 03:03:22;;;;;;;16.83;12.32;;;;;;;19.09;100.00;96941.84;5052314;28;20029;-64
2023/08/22 03:05:47;;;;;;;22.88;14.52;;;;;;;19.00;100.00;96945.16;5054081;28;20036;-63
2023/08/22 03:08:13;;;;;;;24.02;16.95;;;;;;;19.00;100.00;96947.13;5053916;28;20037;-64
2023/08/22 03:10:39;;;;;;;18.80;13.73;;;;;;;18.94;100.00;96934.91;5056690;28;20394;-63
2023/08/22 03:13:04;;;;;;;20.33;13.60;;;;;;;18.93;100.00;96938.91;5056008;28;20158;-65
2023/08/22 03:15:30;;;;;;;16.42;13.80;;;;;;;18.92;100.00;96940.88;5055473;28;20056;-64
2023/08/22 03:17:55;;;;;;;18.10;14.07;;;;;;;18.95;100.00;96936.50;5054891;28;20029;-65
2023/08/22 03:20:20;;;;;;;22.08;15.43;;;;;;;19.02;100.00;96936.41;5053306;28;20526;-65
2023/08/22 03:22:46;;;;;;;19.15;13.35;;;;;;;18.98;100.00;96932.88;5053983;28;20040;-64
2023/08/22 03:25:11;;;;;;;21.02;14.30;;;;;;;18.87;100.00;96936.59;5054204;28;20029;-65
2023/08/22 03:27:37;;;;;;;19.88;12.73;;;;;;;18.83;100.00;96940.59;5052904;28;20486;-64
2023/08/22 03:30:04;;;;;;;16.75;13.32;;;;;;;18.82;100.00;96937.03;5054324;28;20061;-63
2023/08/22 03:32:30;;;;;;;17.00;12.15;;;;;;;18.89;100.00;96934.19;5054344;28;20104;-65
2023/08/22 03:34:55;;;;;;;18.05;11.38;;;;;;;19.02;100.00;96937.19;5053339;28;20067;-65
2023/08/22 03:37:21;;;;;;;18.70;12.35;;;;;;;19.15;100.00;96936.63;5053446;28;20036;-64
2023/08/22 03:39:46;;;;;;;17.30;11.20;;;;;;;19.27;100.00;96944.38;5053589;28;20040;-65
2023/08/22 03:42:11;;;;;;;21.40;12.20;;;;;;;19.31;100.00;96947.13;5051716;28;20040;-65
2023/08/22 03:44:37;;;;;;;16.98;11.85;;;;;;;19.27;100.00;96947.16;5053397;28;20044;-65
2023/08/22 03:47:02;;;;;;;15.98;11.00;;;;;;;19.29;100.00;96947.53;5053367;28;20111;-66
2023/08/22 03:49:28;;;;;;;17.48;12.02;;;;;;;19.24;100.00;96950.78;5053082;28;20037;-66
2023/08/22 03:51:53;;;;;;;15.70;11.13;;;;;;;19.15;100.00;96945.72;5053136;28;20025;-65
2023/08/22 03:54:18;;;;;;;23.98;14.52;;;;;;;19.00;100.00;96950.69;5053084;28;20025;-66
2023/08/22 03:56:44;;;;;;;22.45;12.75;;;;;;;18.99;100.00;96948.34;5053108;28;20082;-65
2023/08/22 03:59:09;;;;;;;16.52;12.40;;;;;;;19.16;100.00;96950.09;5052987;28;20505;-64
2023/08/22 04:01:35;;;;;;;12.07;10.77;;;;;;;19.26;100.00;96954.69;5052901;28;20033;-65
2023/08/22 04:04:00;;;;;;;17.27;12.32;;;;;;;19.26;100.00;96949.13;5052568;28;20028;-65
2023/08/22 04:06:25;;;;;;;13.27;11.82;;;;;;;19.16;100.00;96952.88;5052387;28;20040;-65
2023/08/22 04:08:51;;;;;;;19.05;12.05;;;;;;;19.14;100.00;96946.16;5053308;28;20033;-66
2023/08/22 04:11:16;;;;;;;14.70;11.70;;;;;;;19.18;100.00;96953.22;5052994;28;20431;-66
2023/08/22 04:13:42;;;;;;;16.08;11.18;;;;;;;19.22;100.00;96959.50;5052445;28;20029;-65
2023/08/22 04:16:08;;;;;;;18.33;11.57;;;;;;;19.26;100.00;96963.03;5052855;28;20094;-64
2023/08/22 04:18:33;;;;;;;17.55;13.02;;;;;;;19.23;100.00;96974.19;5052522;28;20035;-65
2023/08/22 04:20:59;;;;;;;17.02;12.05;;;;;;;19.26;100.00;96974.13;5052442;28;20485;-65
2023/08/22 04:23:24;;;;;;;18.40;12.48;;;;;;;19.31;100.00;96975.66;5052096;28;20033;-65
2023/08/22 04:25:49;;;;;;;17.45;12.32;;;;;;;19.40;100.00;96977.94;5052546;28;20021;-65
2023/08/22 04:28:16;;;;;;;17.52;12.77;;;;;;;19.41;100.00;96979.47;5052493;28;20029;-65
2023/08/22 04:30:43;;;;;;;17.65;12.85;;;;;;;19.24;100.00;96964.66;5052162;28;20029;-65
2023/08/22 04:33:08;;;;;;;20.45;12.93;;;;;;;19.15;100.00;96973.50;5052283;28;20029;-64
2023/08/22 04:35:34;;;;;;;13.85;11.45;;;;;;;19.04;100.00;96970.84;5052295;28;20040;-64
2023/08/22 04:37:59;;;;;;;17.05;12.85;;;;;;;18.93;100.00;96974.97;5052477;28;20032;-65
2023/08/22 04:40:24;;;;;;;14.63;11.05;;;;;;;18.94;100.00;96987.66;5052047;28;20032;-65
2023/08/22 04:42:50;;;;;;;14.82;11.23;;;;;;;19.08;100.00;96977.13;5051943;28;20029;-65
2023/08/22 04:45:16;;;;;;;14.70;11.50;;;;;;;19.26;100.00;96987.22;5051608;28;20049;-63
2023/08/22 04:47:42;;;;;;;15.27;11.80;;;;;;;19.34;100.00;96985.94;5052014;28;20070;-64
2023/08/22 04:50:08;;;;;;;15.63;11.77;;;;;;;19.33;100.00;96983.59;5052097;28;20040;-63
2023/08/22 04:52:33;;;;;;;20.52;11.98;;;;;;;19.38;100.00;96980.34;5051672;28;20075;-64
2023/08/22 04:55:00;;;;;;;19.60;12.77;;;;;;;19.51;100.00;96977.78;5052540;28;20478;-64
2023/08/22 04:57:26;;;;;;;19.58;14.10;;;;;;;19.47;100.00;96980.59;5052001;28;20032;-65
2023/08/22 04:59:53;;;;;;;21.95;13.10;;;;;;;19.43;100.00;96982.66;5052119;28;20051;-63
2023/08/22 05:02:19;;;;;;;19.60;13.82;;;;;;;19.36;100.00;96980.75;5051968;28;20061;-65
2023/08/22 05:04:44;;;;;;;22.27;14.07;;;;;;;19.33;100.00;96976.03;5052577;28;20068;-65
2023/08/22 05:07:10;;;;;;;17.15;12.00;;;;;;;19.50;100.00;96990.88;5034568;28;20055;-64
2023/08/22 05:09:35;;;;;;;18.63;12.77;;;;;;;19.71;100.00;96986.97;5052720;28;20029;-63
2023/08/22 05:12:01;;;;;;;18.88;12.77;;;;;;;19.95;100.00;96989.81;5054496;28;20029;-63
2023/08/22 05:14:27;;;;;;;16.52;13.05;;;;;;;20.25;100.00;96984.13;5051598;28;20029;-65
2023/08/22 05:16:53;;;;;;;13.90;12.15;;;;;;;21.05;100.00;96989.03;5051448;28;20100;-65
2023/08/22 05:19:18;;;;;;;20.95;11.52;;;;;;;21.94;100.00;96982.72;5051362;28;20111;-65
2023/08/22 05:21:44;;;;;;;18.92;10.75;;;;;;;23.08;100.00;96990.13;5051753;28;20612;-64
2023/08/22 05:24:10;;;;;;;13.98;9.40;;;;;;;24.21;100.00;96988.28;5051183;28;20078;-65
2023/08/22 05:26:35;;;;;;;14.85;9.15;;;;;;;25.25;100.00;97000.69;5051647;28;20520;-65
2023/08/22 05:29:00;;;;;;;11.43;8.55;;;;;;;26.20;93.20;97007.81;5051840;28;20390;-65
2023/08/22 05:31:26;;;;;;;14.45;9.25;;;;;;;27.00;85.16;97012.44;5051500;28;20037;-63
2023/08/22 05:33:51;;;;;;;12.82;7.80;;;;;;;27.61;78.45;97023.00;5051537;28;20024;-65
2023/08/22 05:36:17;;;;;;;11.65;8.70;;;;;;;27.34;77.13;97021.03;5051430;28;20032;-73
2023/08/22 05:38:43;;;;;;;13.10;8.80;;;;;;;27.33;77.18;97025.84;5051296;28;20075;-63
2023/08/22 05:41:08;;;;;;;14.18;8.70;;;;;;;27.41;76.71;97015.09;5051453;28;20032;-63
2023/08/22 05:43:35;;;;;;;10.77;9.23;;;;;;;25.97;85.25;97020.41;5051012;28;20041;-64
2023/08/22 05:46:01;;;;;;;15.52;10.20;;;;;;;24.94;96.21;97016.19;5051402;28;20558;-64
2023/08/22 05:48:27;;;;;;;15.45;10.65;;;;;;;24.05;100.00;97011.56;5049923;28;20083;-64
2023/08/22 05:50:53;;;;;;;17.05;11.73;;;;;;;24.55;100.00;97017.56;5051453;28;20033;-65
2023/08/22 05:53:18;;;;;;;13.93;11.45;;;;;;;24.46;100.00;97009.03;5049997;28;20086;-64
2023/08/22 05:55:43;;;;;;;16.08;10.98;;;;;;;25.56;95.84;97023.13;5051801;28;20470;-64
2023/08/22 05:58:09;;;;;;;14.90;10.38;;;;;;;26.36;88.15;97026.41;5051531;28;20051;-64
2023/08/22 06:00:35;;;;;;;15.85;10.38;;;;;;;27.70;80.17;97027.81;5051275;28;20064;-65
2023/08/22 06:03:00;;;;;;;13.93;9.85;;;;;;;28.72;74.07;97033.75;5050940;28;20474;-66
2023/08/22 06:05:26;;;;;;;14.52;10.02;;;;;;;29.46;67.90;97035.94;5051530;28;20035;-65
2023/08/22 06:07:53;;;;;;;14.00;9.45;;;;;;;30.13;64.63;97041.19;5051525;28;20071;-66
2023/08/22 06:10:18;;;;;;;13.55;9.98;;;;;;;30.55;62.83;97046.44;5051470;28;20044;-71
2023/08/22 06:12:43;;;;;;;15.77;9.55;;;;;;;30.98;59.13;97055.22;5054483;28;20029;-67
2023/08/22 06:15:09;;;;;;;13.75;9.13;;;;;;;30.68;60.33;97046.06;5053402;28;20052;-66
2023/08/22 06:17:35;;;;;;;13.77;9.50;;;;;;;30.31;63.08;97044.53;5052620;28;20025;-66
2023/08/22 06:20:00;;;;;;;15.63;8.07;;;;;;;31.63;58.55;97057.72;5050987;28;20401;-67
2023/08/22 06:22:26;;;;;;;14.98;8.73;;;;;;;32.42;55.08;97056.81;5051669;28;20029;-67
2023/08/22 06:24:51;;;;;;;12.13;8.43;;;;;;;33.40;51.21;97066.81;5050280;28;20474;-67
2023/08/22 06:27:17;;;;;;;11.35;7.88;;;;;;;33.48;50.38;97067.88;5051708;28;20101;-68
2023/08/22 06:29:42;;;;;;;12.10;9.25;;;;;;;29.79;60.87;97060.41;5053489;28;20434;-67
2023/08/22 06:32:08;;;;;;;17.45;10.80;;;;;;;29.00;68.10;97062.50;5054507;28;20489;-66
2023/08/22 06:34:33;;;;;;;10.90;9.10;;;;;;;31.34;59.23;97064.38;5054919;28;20025;-68
2023/08/22 06:36:59;;;;;;;13.13;8.90;;;;;;;32.79;53.38;97070.97;5054654;28;20091;-66
2023/08/22 06:39:24;;;;;;;16.73;10.15;;;;;;;31.66;54.77;97067.28;5054278;28;20043;-68
2023/08/22 06:41:49;;;;;;;16.40;10.20;;;;;;;31.33;58.23;97068.50;5053939;28;20039;-69
2023/08/22 06:44:15;;;;;;;10.90;8.48;;;;;;;31.76;56.93;97067.88;5036321;28;20116;-68
2023/08/22 06:46:41;;;;;;;12.52;9.05;;;;;;;33.05;52.07;97067.97;5054520;28;20029;-67
2023/08/22 06:49:06;;;;;;;13.90;9.20;;;;;;;32.81;51.18;97067.59;5036842;28;20537;-68
2023/08/22 06:51:33;;;;;;;12.43;9.15;;;;;;;31.94;56.74;97067.53;5053414;28;20032;-67
2023/08/22 06:53:58;;;;;;;13.95;10.63;;;;;;;31.02;57.62;97063.50;5054293;28;20064;-66
2023/08/22 06:56:25;;;;;;;14.90;9.68;;;;;;;30.74;60.48;97065.94;5054515;28;20108;-68
2023/08/22 06:58:51;;;;;;;11.80;8.18;;;;;;;31.41;59.87;97058.28;5054582;28;20056;-67
2023/08/22 07:01:16;;;;;;;12.85;8.38;;;;;;;32.92;53.62;97067.69;5054471;28;20583;-68
2023/08/22 07:03:42;;;;;;;14.38;8.15;;;;;;;34.48;49.23;97079.03;5052724;28;20029;-68
2023/08/22 07:06:07;;;;;;;12.18;8.25;;;;;;;34.66;48.07;97078.47;5054634;28;20351;-69
2023/08/22 07:08:33;;;;;;;13.18;8.75;;;;;;;35.49;45.42;97089.31;5054518;28;20106;-68
2023/08/22 07:11:03;;;;;;;11.50;8.20;;;;;;;36.20;43.78;97087.03;5054453;28;20037;-68
2023/08/22 07:13:29;;;;;;;11.85;8.35;;;;;;;36.53;42.19;97078.13;5054327;28;20033;-68
2023/08/22 07:15:55;;;;;;;13.65;7.68;;;;;;;36.15;43.18;97091.44;5054624;28;20040;-68
2023/08/22 07:18:20;;;;;;;15.00;8.38;;;;;;;35.40;43.83;97081.06;5054126;28;20033;-68
2023/08/22 07:20:46;;;;;;;13.52;8.43;;;;;;;36.05;42.49;97090.22;5054070;28;20423;-68
2023/08/22 07:23:12;;;;;;;16.55;8.80;;;;;;;36.72;41.71;97094.56;5053585;28;20029;-68
2023/08/22 07:25:37;;;;;;;13.80;8.75;;;;;;;36.08;41.91;97094.88;5053925;28;20040;-68
2023/08/22 07:28:03;;;;;;;13.98;7.20;;;;;;;36.24;42.25;97101.75;5053832;28;20455;-68
2023/08/22 07:30:29;;;;;;;14.77;7.50;;;;;;;35.90;42.42;97105.63;5053777;28;20086;-69
2023/08/22 07:32:54;;;;;;;15.90;6.90;;;;;;;36.39;42.66;97095.66;5053426;28;20051;-69
2023/08/22 07:35:20;;;;;;;12.77;7.72;;;;;;;36.79;41.38;97096.84;5053691;28;20032;-69
2023/08/22 07:37:45;;;;;;;14.75;8.13;;;;;;;35.89;42.96;97097.59;5053741;28;20036;-69
2023/08/22 07:40:11;;;;;;;15.05;7.57;;;;;;;37.28;40.11;97099.63;5052930;28;20113;-68
2023/08/22 07:42:36;;;;;;;15.00;7.97;;;;;;;36.86;40.69;97099.09;5053091;28;20470;-68
2023/08/22 07:45:03;;;;;;;10.02;7.47;;;;;;;37.44;39.56;97102.81;5053299;28;20103;-68
2023/08/22 07:47:29;;;;;;;12.95;7.13;;;;;;;37.60;38.34;97101.78;5053520;28;20025;-68
2023/08/22 07:49:55;;;;;;;13.23;7.60;;;;;;;37.81;38.45;97098.41;5052022;28;20033;-68
2023/08/22 07:52:20;;;;;;;11.43;7.95;;;;;;;37.74;38.54;97104.72;5052972;28;20032;-68
2023/08/22 07:54:45;;;;;;;14.32;7.93;;;;;;;36.83;40.08;97110.81;5053379;28;20112;-68
2023/08/22 07:57:11;;;;;;;13.80;8.55;;;;;;;35.75;43.00;97102.38;5051645;28;20025;-68
2023/08/22 07:59:38;;;;;;;18.67;8.95;;;;;;;35.68;43.61;97100.81;5051824;28;20476;-68
2023/08/22 08:02:04;;;;;;;14.98;8.80;;;;;;;36.28;42.01;97108.69;5046080;28;20053;-67
2023/08/22 08:04:30;;;;;;;14.55;9.43;;;;;;;35.39;43.55;97097.38;5045180;28;20021;-67
2023/08/22 08:06:56;;;;;;;12.77;8.98;;;;;;;35.37;43.66;97099.97;5054183;28;20466;-68
2023/08/22 08:09:21;;;;;;;11.50;8.02;;;;;;;35.42;44.82;97102.03;5053910;28;20140;-67
2023/08/22 08:11:47;;;;;;;9.85;7.85;;;;;;;35.67;43.38;97107.81;5053609;28;20065;-68
2023/08/22 08:14:12;;;;;;;10.18;8.48;;;;;;;36.01;43.12;97106.84;5053107;28;20394;-67
2023/08/22 08:16:38;;;;;;;17.30;9.00;;;;;;;35.39;44.26;97108.75;5053042;28;20032;-68
2023/08/22 08:19:04;;;;;;;12.73;8.88;;;;;;;35.61;43.91;97105.00;5052921;28;20063;-67
2023/08/22 08:21:30;;;;;;;12.05;8.60;;;;;;;36.00;42.22;97111.78;5052810;28;20025;-67
2023/08/22 08:23:55;;;;;;;13.38;8.38;;;;;;;36.47;42.05;97114.50;5051295;28;20394;-67
2023/08/22 08:26:21;;;;;;;14.38;8.43;;;;;;;36.80;41.33;97111.88;5051488;28;20029;-67
2023/08/22 08:28:46;;;;;;;11.20;7.72;;;;;;;36.83;40.94;97108.72;5052938;28;20043;-67
2023/08/22 08:31:12;;;;;;;13.73;7.55;;;;;;;37.12;39.92;97114.88;5052630;28;20037;-68
2023/08/22 08:33:37;;;;;;;15.02;8.18;;;;;;;37.11;39.67;97111.25;5053117;28;20033;-67
2023/08/22 08:36:04;;;;;;;17.58;9.65;;;;;;;36.80;40.15;97111.88;5052275;28;20032;-68
2023/08/22 08:38:30;;;;;;;16.83;9.40;;;;;;;36.65;41.34;97106.56;5052995;28;20033;-68
2023/08/22 08:40:59;;;;;;;14.55;8.32;;;;;;;36.71;40.83;97101.59;5053183;28;20040;-68
2023/08/22 08:43:25;;;;;;;15.82;7.43;;;;;;;37.08;40.27;97118.03;5052163;28;20033;-67
2023/08/22 08:45:51;;;;;;;16.58;8.45;;;;;;;37.49;39.49;97108.44;5052315;28;20028;-68
2023/08/22 08:48:18;;;;;;;13.38;8.20;;;;;;;37.10;39.03;97106.84;5052797;28;20032;-68
2023/08/22 08:50:43;;;;;;;14.65;8.80;;;;;;;37.58;38.80;97101.56;5050990;22;20421;-69
2023/08/22 08:53:09;;;;;;;16.30;8.95;;;;;;;35.22;42.42;97106.00;5020191;28;20042;-70
2023/08/22 08:55:35;;;;;;;14.70;8.85;;;;;;;35.89;42.60;97106.13;4998189;28;20434;-70
2023/08/22 08:58:00;;;;;;;15.73;8.27;;;;;;;35.75;43.06;97108.84;5004465;28;20037;-69
2023/08/22 09:00:26;;;;;;;16.10;9.15;;;;;;;36.06;42.18;97103.19;5012561;28;20037;-69
2023/08/22 09:02:53;;;;;;;15.23;9.38;;;;;;;36.15;42.21;97108.53;5021260;28;20123;-71
2023/08/22 09:05:21;;;;;;;14.48;9.43;;;;;;;35.28;43.78;97099.53;5016202;28;20057;-71
2023/08/22 09:07:47;;;;;;;16.87;8.77;;;;;;;35.94;42.38;97108.19;5009580;28;20112;-70
2023/08/22 09:10:12;;;;;;;13.43;8.00;;;;;;;36.66;41.35;97105.22;5012411;28;20191;-68
2023/08/22 09:12:38;;;;;;;11.55;8.45;;;;;;;36.18;42.05;97101.78;5012346;28;20034;-69
2023/08/22 09:15:17;;;;;;;12.38;8.50;;;;;;;36.72;41.17;97101.06;5015611;28;20433;-70
2023/08/22 09:17:42;;;;;;;13.88;8.02;;;;;;;37.01;40.43;97097.88;5015609;28;20090;-70
2023/08/22 09:20:10;;;;;;;14.25;8.75;;;;;;;36.33;41.60;97102.19;5018998;28;20057;-70
2023/08/22 09:22:35;;;;;;;13.48;8.52;;;;;;;36.28;41.66;97099.38;5023895;28;20057;-70
2023/08/22 09:25:04;;;;;;;14.77;9.15;;;;;;;35.32;43.71;97092.22;5014671;28;20034;-69
2023/08/22 09:27:29;;;;;;;9.75;8.00;;;;;;;35.67;43.01;97087.09;5012628;28;20030;-69
2023/08/22 09:30:00;;;;;;;14.27;9.05;;;;;;;35.65;43.51;97084.00;5012253;28;20553;-69
2023/08/22 09:32:25;;;;;;;15.80;8.57;;;;;;;35.91;42.12;97095.78;5011752;28;20030;-68
2023/08/22 09:34:56;;;;;;;15.65;8.65;;;;;;;35.48;44.49;97087.75;5012122;28;20038;-69
2023/08/22 09:37:37;;;;;;;13.52;8.95;;;;;;;35.86;43.91;97078.72;5012271;28;20124;-69
2023/08/22 09:40:09;;;;;;;11.45;9.07;;;;;;;35.95;42.90;97084.84;5012422;28;20037;-70
2023/08/22 09:42:38;;;;;;;14.50;8.82;;;;;;;35.55;43.81;97080.72;5011638;28;20030;-70
2023/08/22 09:45:05;;;;;;;17.13;8.70;;;;;;;35.67;43.29;97073.63;4994239;28;20080;-70
2023/08/22 09:47:31;;;;;;;14.38;8.80;;;;;;;35.79;43.30;97074.34;5011961;28;20494;-69
2023/08/22 09:49:59;;;;;;;11.57;8.77;;;;;;;35.07;44.23;97073.44;5010524;28;20609;-70
2023/08/22 09:52:25;;;;;;;10.70;8.57;;;;;;;35.77;42.97;97080.59;5011867;28;20030;-70
2023/08/22 09:54:52;;;;;;;12.38;8.52;;;;;;;34.69;44.46;97068.16;5011776;28;20038;-70
2023/08/22 09:57:18;;;;;;;13.05;8.43;;;;;;;35.81;42.60;97070.97;5014178;28;20057;-71
2023/08/22 09:59:47;;;;;;;14.27;8.68;;;;;;;35.35;43.84;97067.66;5019271;28;20117;-70
2023/08/22 10:02:14;;;;;;;13.88;8.55;;;;;;;35.20;44.51;97062.28;5011352;28;20025;-70
2023/08/22 10:04:40;;;;;;;14.20;8.10;;;;;;;35.17;44.01;97063.31;5014118;28;20045;-69
2023/08/22 10:07:06;;;;;;;11.68;8.18;;;;;;;34.95;45.08;97058.47;5015450;28;20109;-70
2023/08/22 10:09:32;;;;;;;15.45;7.95;;;;;;;34.93;45.21;97055.38;5015671;28;20155;-70
2023/08/22 10:12:01;;;;;;;13.38;8.10;;;;;;;34.96;44.06;97054.34;5015730;28;20126;-69
2023/08/22 10:14:45;;;;;;;13.38;8.55;;;;;;;34.91;44.56;97055.91;5020381;28;20049;-71
2023/08/22 10:17:13;;;;;;;13.68;9.10;;;;;;;34.69;44.49;97062.47;5017764;28;20065;-69
2023/08/22 10:19:38;;;;;;;11.70;8.45;;;;;;;33.85;47.01;97046.25;5015271;28;20107;-68
2023/08/22 10:22:10;;;;;;;13.85;8.68;;;;;;;34.35;46.03;97050.38;5014851;28;20498;-69
2023/08/22 10:24:36;;;;;;;13.65;8.52;;;;;;;34.77;44.98;97045.63;5015446;28;20025;-70
2023/08/22 10:27:04;;;;;;;12.40;8.88;;;;;;;34.04;46.29;97049.34;5015141;28;20478;-70
2023/08/22 10:29:33;;;;;;;13.85;8.60;;;;;;;33.66;46.85;97028.94;5013574;28;20057;-70
2023/08/22 10:32:01;;;;;;;17.05;9.02;;;;;;;33.80;47.00;97035.66;5014893;28;20069;-69
2023/08/22 10:34:39;;;;;;;14.90;8.13;;;;;;;34.11;46.58;97028.16;5015170;28;20053;-69
2023/08/22 10:37:19;;;;;;;12.88;8.38;;;;;;;34.09;45.94;97037.19;5014647;28;20038;-70
2023/08/22 10:39:46;;;;;;;13.02;8.15;;;;;;;33.84;46.95;97030.50;5014971;28;20034;-70
2023/08/22 10:42:22;;;;;;;13.05;8.27;;;;;;;34.54;46.76;97030.66;5014799;28;20049;-69
2023/08/22 10:44:56;;;;;;;14.45;8.68;;;;;;;34.40;46.30;97038.22;5014826;28;20092;-69
2023/08/22 10:47:25;;;;;;;17.05;8.07;;;;;;;34.71;44.92;97031.41;5014815;28;20030;-70
2023/08/22 10:49:54;;;;;;;;;;;;;;;34.52;45.16;97027.56;5014722;28;20040;-69
2023/08/22 10:52:31;;;;;;;11.63;8.20;;;;;;;34.67;45.19;97028.03;5014283;28;19933;-69
2023/08/22 10:55:06;;;;;;;10.80;8.02;;;;;;;34.72;45.05;97032.97;5014570;28;20129;-69
2023/08/22 10:57:38;;;;;;;17.77;7.93;;;;;;;34.75;44.97;97029.06;5014533;28;20371;-68
2023/08/22 11:00:12;;;;;;;11.25;7.57;;;;;;;34.99;44.09;97030.53;5014705;28;20041;-69
2023/08/22 11:02:39;;;;;;;15.15;8.30;;;;;;;34.24;46.88;97029.19;5032751;28;20036;-69
2023/08/22 11:05:11;;;;;;;11.70;7.97;;;;;;;34.15;46.77;97022.97;5016399;28;20033;-69
2023/08/22 11:07:41;;;;;;;13.85;8.20;;;;;;;34.38;46.40;97018.06;5014625;28;20026;-70
2023/08/22 11:10:14;;;;;;;14.00;8.38;;;;;;;34.30;46.54;97017.81;5014055;28;20375;-70
2023/08/22 11:12:41;;;;;;;11.25;8.48;;;;;;;33.51;48.46;97012.91;5013461;28;20057;-69
2023/08/22 11:15:07;;;;;;;15.45;8.43;;;;;;;33.18;50.13;97010.78;5013250;28;20087;-70
2023/08/22 11:17:32;;;;;;;11.30;8.23;;;;;;;33.20;49.99;97004.59;5014435;28;20053;-70